sensor_id;sensor_type;location;lat;lon;timestamp;temperature;humidity
78461;SHT31;67755;51.986;5.696;2023-06-22T00:00:23;24.0;55.0
78461;SHT31;67755;51.986;5.696;2023-06-22T00:02:53;24.0;55.4
78461;SHT31;67755;51.986;5.696;2023-06-22T00:05:23;24.0;55.5
78461;SHT31;67755;51.986;5.696;2023-06-22T00:07:52;24.0;55.5
78461;SHT31;67755;51.986;5.696;2023-06-22T00:10:22;24.0;55.5
78461;SHT31;67755;51.986;5.696;2023-06-22T00:12:51;23.9;55.3
78461;SHT31;67755;51.986;5.696;2023-06-22T00:15:21;23.9;55.1
78461;SHT31;67755;51.986;5.696;2023-06-22T00:17:51;23.9;54.9
78461;SHT31;67755;51.986;5.696;2023-06-22T00:20:20;23.9;55.0
78461;SHT31;67755;51.986;5.696;2023-06-22T00:22:50;23.9;55.2
78461;SHT31;67755;51.986;5.696;2023-06-22T00:25:19;23.9;54.7
78461;SHT31;67755;51.986;5.696;2023-06-22T00:27:50;23.9;54.7
78461;SHT31;67755;51.986;5.696;2023-06-22T00:30:20;23.8;54.5
78461;SHT31;67755;51.986;5.696;2023-06-22T00:32:49;23.8;54.4
78461;SHT31;67755;51.986;5.696;2023-06-22T00:35:19;23.8;54.4
78461;SHT31;67755;51.986;5.696;2023-06-22T00:37:50;23.8;54.4
78461;SHT31;67755;51.986;5.696;2023-06-22T00:40:24;23.8;54.3
78461;SHT31;67755;51.986;5.696;2023-06-22T00:42:54;23.8;54.3
78461;SHT31;67755;51.986;5.696;2023-06-22T00:45:25;23.7;54.6
78461;SHT31;67755;51.986;5.696;2023-06-22T00:47:57;23.7;54.6
78461;SHT31;67755;51.986;5.696;2023-06-22T00:50:30;23.7;54.7
78461;SHT31;67755;51.986;5.696;2023-06-22T00:53:04;23.7;54.5
78461;SHT31;67755;51.986;5.696;2023-06-22T00:55:38;23.7;54.6
78461;SHT31;67755;51.986;5.696;2023-06-22T00:58:09;23.6;54.7
78461;SHT31;67755;51.986;5.696;2023-06-22T01:00:41;23.6;54.7
78461;SHT31;67755;51.986;5.696;2023-06-22T01:03:10;23.6;54.8
78461;SHT31;67755;51.986;5.696;2023-06-22T01:05:40;23.6;55.2
78461;SHT31;67755;51.986;5.696;2023-06-22T01:08:26;23.6;55.3
78461;SHT31;67755;51.986;5.696;2023-06-22T01:11:05;23.5;55.0
78461;SHT31;67755;51.986;5.696;2023-06-22T01:13:48;23.5;55.1
78461;SHT31;67755;51.986;5.696;2023-06-22T01:16:24;23.5;54.7
78461;SHT31;67755;51.986;5.696;2023-06-22T01:18:57;23.5;55.0
78461;SHT31;67755;51.986;5.696;2023-06-22T01:21:30;23.5;54.8
78461;SHT31;67755;51.986;5.696;2023-06-22T01:24:14;23.4;54.9
78461;SHT31;67755;51.986;5.696;2023-06-22T01:26:57;23.4;54.7
78461;SHT31;67755;51.986;5.696;2023-06-22T01:29:30;23.4;55.0
78461;SHT31;67755;51.986;5.696;2023-06-22T01:32:03;23.4;55.3
78461;SHT31;67755;51.986;5.696;2023-06-22T01:34:35;23.4;55.1
78461;SHT31;67755;51.986;5.696;2023-06-22T01:37:08;23.3;55.5
78461;SHT31;67755;51.986;5.696;2023-06-22T01:39:38;23.3;55.5
78461;SHT31;67755;51.986;5.696;2023-06-22T01:42:11;23.3;55.5
78461;SHT31;67755;51.986;5.696;2023-06-22T01:44:41;23.3;55.1
78461;SHT31;67755;51.986;5.696;2023-06-22T01:47:11;23.3;56.1
78461;SHT31;67755;51.986;5.696;2023-06-22T01:49:45;23.2;55.7
78461;SHT31;67755;51.986;5.696;2023-06-22T01:52:15;23.2;56.0
78461;SHT31;67755;51.986;5.696;2023-06-22T01:54:47;23.2;55.6
78461;SHT31;67755;51.986;5.696;2023-06-22T01:57:17;23.2;55.4
78461;SHT31;67755;51.986;5.696;2023-06-22T01:59:52;23.2;55.6
78461;SHT31;67755;51.986;5.696;2023-06-22T02:02:29;23.1;55.8
78461;SHT31;67755;51.986;5.696;2023-06-22T02:05:09;23.1;55.7
78461;SHT31;67755;51.986;5.696;2023-06-22T02:07:45;23.1;55.5
78461;SHT31;67755;51.986;5.696;2023-06-22T02:10:21;23.1;55.5
78461;SHT31;67755;51.986;5.696;2023-06-22T02:12:53;23.1;55.5
78461;SHT31;67755;51.986;5.696;2023-06-22T02:15:23;23.1;55.7
78461;SHT31;67755;51.986;5.696;2023-06-22T02:17:54;23.0;55.9
78461;SHT31;67755;51.986;5.696;2023-06-22T02:20:24;23.0;56.0
78461;SHT31;67755;51.986;5.696;2023-06-22T02:22:54;23.0;55.8
78461;SHT31;67755;51.986;5.696;2023-06-22T02:25:24;23.0;55.8
78461;SHT31;67755;51.986;5.696;2023-06-22T02:27:53;23.0;55.6
78461;SHT31;67755;51.986;5.696;2023-06-22T02:30:23;22.9;55.9
78461;SHT31;67755;51.986;5.696;2023-06-22T02:32:53;22.9;55.6
78461;SHT31;67755;51.986;5.696;2023-06-22T02:35:26;22.9;55.7
78461;SHT31;67755;51.986;5.696;2023-06-22T02:37:59;22.9;55.7
78461;SHT31;67755;51.986;5.696;2023-06-22T02:40:30;22.9;55.6
78461;SHT31;67755;51.986;5.696;2023-06-22T02:42:59;22.8;55.9
78461;SHT31;67755;51.986;5.696;2023-06-22T02:45:30;22.8;55.9
78461;SHT31;67755;51.986;5.696;2023-06-22T02:48:02;22.8;56.0
78461;SHT31;67755;51.986;5.696;2023-06-22T02:50:36;22.8;56.0
78461;SHT31;67755;51.986;5.696;2023-06-22T02:53:05;22.7;56.1
78461;SHT31;67755;51.986;5.696;2023-06-22T02:55:35;22.7;56.4
78461;SHT31;67755;51.986;5.696;2023-06-22T02:58:07;22.7;56.5
78461;SHT31;67755;51.986;5.696;2023-06-22T03:00:36;22.7;56.4
78461;SHT31;67755;51.986;5.696;2023-06-22T03:03:06;22.6;56.5
78461;SHT31;67755;51.986;5.696;2023-06-22T03:05:36;22.6;56.7
78461;SHT31;67755;51.986;5.696;2023-06-22T03:08:09;22.6;56.9
78461;SHT31;67755;51.986;5.696;2023-06-22T03:10:39;22.6;56.8
78461;SHT31;67755;51.986;5.696;2023-06-22T03:13:08;22.6;56.7
78461;SHT31;67755;51.986;5.696;2023-06-22T03:15:40;22.6;56.9
78461;SHT31;67755;51.986;5.696;2023-06-22T03:18:09;22.6;56.9
78461;SHT31;67755;51.986;5.696;2023-06-22T03:20:39;22.5;56.8
78461;SHT31;67755;51.986;5.696;2023-06-22T03:23:08;22.5;57.0
78461;SHT31;67755;51.986;5.696;2023-06-22T03:25:40;22.5;57.0
78461;SHT31;67755;51.986;5.696;2023-06-22T03:28:12;22.5;57.2
78461;SHT31;67755;51.986;5.696;2023-06-22T03:30:41;22.5;57.1
78461;SHT31;67755;51.986;5.696;2023-06-22T03:33:11;22.5;57.1
78461;SHT31;67755;51.986;5.696;2023-06-22T03:35:40;22.5;57.2
78461;SHT31;67755;51.986;5.696;2023-06-22T03:38:10;22.5;57.3
78461;SHT31;67755;51.986;5.696;2023-06-22T03:40:39;22.5;57.5
78461;SHT31;67755;51.986;5.696;2023-06-22T03:43:09;22.5;57.2
78461;SHT31;67755;51.986;5.696;2023-06-22T03:45:38;22.5;57.4
78461;SHT31;67755;51.986;5.696;2023-06-22T03:48:10;22.5;57.3
78461;SHT31;67755;51.986;5.696;2023-06-22T03:50:39;22.5;57.3
78461;SHT31;67755;51.986;5.696;2023-06-22T03:53:11;22.5;57.5
78461;SHT31;67755;51.986;5.696;2023-06-22T03:55:49;22.5;57.4
78461;SHT31;67755;51.986;5.696;2023-06-22T03:58:21;22.5;57.5
78461;SHT31;67755;51.986;5.696;2023-06-22T04:00:52;22.5;57.2
78461;SHT31;67755;51.986;5.696;2023-06-22T04:03:24;22.5;57.3
78461;SHT31;67755;51.986;5.696;2023-06-22T04:05:53;22.5;57.2
78461;SHT31;67755;51.986;5.696;2023-06-22T04:08:23;22.5;57.3
78461;SHT31;67755;51.986;5.696;2023-06-22T04:10:53;22.5;57.3
78461;SHT31;67755;51.986;5.696;2023-06-22T04:13:22;22.5;57.5
78461;SHT31;67755;51.986;5.696;2023-06-22T04:15:52;22.4;57.7
78461;SHT31;67755;51.986;5.696;2023-06-22T04:18:22;22.4;57.6
78461;SHT31;67755;51.986;5.696;2023-06-22T04:20:51;22.4;57.8
78461;SHT31;67755;51.986;5.696;2023-06-22T04:23:22;22.4;57.8
78461;SHT31;67755;51.986;5.696;2023-06-22T04:25:52;22.4;58.1
78461;SHT31;67755;51.986;5.696;2023-06-22T04:28:24;22.4;58.1
78461;SHT31;67755;51.986;5.696;2023-06-22T04:30:53;22.4;58.5
78461;SHT31;67755;51.986;5.696;2023-06-22T04:33:28;22.4;58.5
78461;SHT31;67755;51.986;5.696;2023-06-22T04:35:59;22.4;58.4
78461;SHT31;67755;51.986;5.696;2023-06-22T04:38:31;22.4;58.9
78461;SHT31;67755;51.986;5.696;2023-06-22T04:41:01;22.4;58.9
78461;SHT31;67755;51.986;5.696;2023-06-22T04:43:33;22.4;59.3
78461;SHT31;67755;51.986;5.696;2023-06-22T04:46:03;22.4;59.5
78461;SHT31;67755;51.986;5.696;2023-06-22T04:48:34;22.4;59.5
78461;SHT31;67755;51.986;5.696;2023-06-22T04:51:04;22.4;59.8
78461;SHT31;67755;51.986;5.696;2023-06-22T04:53:33;22.5;60.0
78461;SHT31;67755;51.986;5.696;2023-06-22T04:56:03;22.5;60.2
78461;SHT31;67755;51.986;5.696;2023-06-22T04:58:33;22.5;60.4
78461;SHT31;67755;51.986;5.696;2023-06-22T05:01:02;22.5;60.3
78461;SHT31;67755;51.986;5.696;2023-06-22T05:03:32;22.5;60.2
78461;SHT31;67755;51.986;5.696;2023-06-22T05:06:04;22.5;60.0
78461;SHT31;67755;51.986;5.696;2023-06-22T05:08:38;22.5;60.2
78461;SHT31;67755;51.986;5.696;2023-06-22T05:11:09;22.6;59.9
78461;SHT31;67755;51.986;5.696;2023-06-22T05:13:39;22.6;60.2
78461;SHT31;67755;51.986;5.696;2023-06-22T05:16:08;22.6;59.8
78461;SHT31;67755;51.986;5.696;2023-06-22T05:18:38;22.6;60.4
78461;SHT31;67755;51.986;5.696;2023-06-22T05:21:09;22.6;61.1
78461;SHT31;67755;51.986;5.696;2023-06-22T05:23:40;22.6;60.8
78461;SHT31;67755;51.986;5.696;2023-06-22T05:26:09;22.7;60.9
78461;SHT31;67755;51.986;5.696;2023-06-22T05:28:39;22.7;60.6
78461;SHT31;67755;51.986;5.696;2023-06-22T05:31:08;22.7;60.6
78461;SHT31;67755;51.986;5.696;2023-06-22T05:33:38;22.8;60.8
78461;SHT31;67755;51.986;5.696;2023-06-22T05:36:08;22.8;61.1
78461;SHT31;67755;51.986;5.696;2023-06-22T05:38:38;22.8;60.2
78461;SHT31;67755;51.986;5.696;2023-06-22T05:41:08;22.8;60.4
78461;SHT31;67755;51.986;5.696;2023-06-22T05:43:38;22.9;60.6
78461;SHT31;67755;51.986;5.696;2023-06-22T05:46:07;22.9;60.5
78461;SHT31;67755;51.986;5.696;2023-06-22T05:48:37;22.9;59.7
78461;SHT31;67755;51.986;5.696;2023-06-22T05:51:06;23.0;60.6
78461;SHT31;67755;51.986;5.696;2023-06-22T05:53:36;23.0;61.7
78461;SHT31;67755;51.986;5.696;2023-06-22T05:56:06;23.0;60.7
78461;SHT31;67755;51.986;5.696;2023-06-22T05:58:35;23.0;60.5
78461;SHT31;67755;51.986;5.696;2023-06-22T06:01:05;23.1;59.9
78461;SHT31;67755;51.986;5.696;2023-06-22T06:03:35;23.1;59.6
78461;SHT31;67755;51.986;5.696;2023-06-22T06:06:08;23.1;59.5
78461;SHT31;67755;51.986;5.696;2023-06-22T06:08:38;23.2;59.8
78461;SHT31;67755;51.986;5.696;2023-06-22T06:11:08;23.2;59.6
78461;SHT31;67755;51.986;5.696;2023-06-22T06:13:38;23.2;59.5
78461;SHT31;67755;51.986;5.696;2023-06-22T06:16:07;23.2;59.8
78461;SHT31;67755;51.986;5.696;2023-06-22T06:18:37;23.3;60.7
78461;SHT31;67755;51.986;5.696;2023-06-22T06:21:06;23.3;59.8
78461;SHT31;67755;51.986;5.696;2023-06-22T06:23:36;23.4;61.0
78461;SHT31;67755;51.986;5.696;2023-06-22T06:26:05;23.4;60.0
78461;SHT31;67755;51.986;5.696;2023-06-22T06:28:35;23.5;60.8
78461;SHT31;67755;51.986;5.696;2023-06-22T06:31:05;23.5;61.0
78461;SHT31;67755;51.986;5.696;2023-06-22T06:33:36;23.6;61.6
78461;SHT31;67755;51.986;5.696;2023-06-22T06:36:06;23.7;61.2
78461;SHT31;67755;51.986;5.696;2023-06-22T06:38:35;23.8;60.6
78461;SHT31;67755;51.986;5.696;2023-06-22T06:41:07;23.9;59.6
78461;SHT31;67755;51.986;5.696;2023-06-22T06:43:37;24.0;59.9
78461;SHT31;67755;51.986;5.696;2023-06-22T06:46:06;24.0;60.6
78461;SHT31;67755;51.986;5.696;2023-06-22T06:48:36;24.1;60.0
78461;SHT31;67755;51.986;5.696;2023-06-22T06:51:07;24.2;58.2
78461;SHT31;67755;51.986;5.696;2023-06-22T06:53:38;24.3;58.6
78461;SHT31;67755;51.986;5.696;2023-06-22T06:56:07;24.4;57.9
78461;SHT31;67755;51.986;5.696;2023-06-22T06:58:40;24.5;59.4
78461;SHT31;67755;51.986;5.696;2023-06-22T07:01:12;24.6;57.6
78461;SHT31;67755;51.986;5.696;2023-06-22T07:03:42;24.7;57.0
78461;SHT31;67755;51.986;5.696;2023-06-22T07:06:13;24.8;56.6
78461;SHT31;67755;51.986;5.696;2023-06-22T07:08:43;24.9;56.9
78461;SHT31;67755;51.986;5.696;2023-06-22T07:11:13;25.0;56.0
78461;SHT31;67755;51.986;5.696;2023-06-22T07:13:43;25.1;55.5
78461;SHT31;67755;51.986;5.696;2023-06-22T07:16:13;25.1;57.5
78461;SHT31;67755;51.986;5.696;2023-06-22T07:18:42;25.2;55.1
78461;SHT31;67755;51.986;5.696;2023-06-22T07:21:12;25.3;54.7
78461;SHT31;67755;51.986;5.696;2023-06-22T07:23:41;25.4;54.5
78461;SHT31;67755;51.986;5.696;2023-06-22T07:26:11;25.4;54.8
78461;SHT31;67755;51.986;5.696;2023-06-22T07:28:41;25.5;53.2
78461;SHT31;67755;51.986;5.696;2023-06-22T07:31:11;25.6;54.5
78461;SHT31;67755;51.986;5.696;2023-06-22T07:33:40;25.6;53.5
78461;SHT31;67755;51.986;5.696;2023-06-22T07:36:10;25.7;54.7
78461;SHT31;67755;51.986;5.696;2023-06-22T07:38:40;25.8;54.9
78461;SHT31;67755;51.986;5.696;2023-06-22T07:41:09;25.8;53.5
78461;SHT31;67755;51.986;5.696;2023-06-22T07:43:39;25.9;52.7
78461;SHT31;67755;51.986;5.696;2023-06-22T07:46:08;26.0;52.9
78461;SHT31;67755;51.986;5.696;2023-06-22T07:48:38;26.1;52.0
78461;SHT31;67755;51.986;5.696;2023-06-22T07:51:09;26.2;52.4
78461;SHT31;67755;51.986;5.696;2023-06-22T07:53:41;26.3;54.2
78461;SHT31;67755;51.986;5.696;2023-06-22T07:56:12;26.3;52.8
78461;SHT31;67755;51.986;5.696;2023-06-22T07:58:46;26.4;51.3
78461;SHT31;67755;51.986;5.696;2023-06-22T08:01:17;26.5;50.8
78461;SHT31;67755;51.986;5.696;2023-06-22T08:03:49;26.5;51.3
78461;SHT31;67755;51.986;5.696;2023-06-22T08:06:19;26.5;53.0
78461;SHT31;67755;51.986;5.696;2023-06-22T08:08:48;26.6;51.6
78461;SHT31;67755;51.986;5.696;2023-06-22T08:11:20;26.6;50.0
78461;SHT31;67755;51.986;5.696;2023-06-22T08:13:52;26.6;52.7
78461;SHT31;67755;51.986;5.696;2023-06-22T08:16:23;26.7;53.4
78461;SHT31;67755;51.986;5.696;2023-06-22T08:18:52;26.7;54.0
78461;SHT31;67755;51.986;5.696;2023-06-22T08:21:22;26.8;51.8
78461;SHT31;67755;51.986;5.696;2023-06-22T08:23:52;26.8;50.3
78461;SHT31;67755;51.986;5.696;2023-06-22T08:26:21;26.9;49.1
78461;SHT31;67755;51.986;5.696;2023-06-22T08:28:51;26.9;50.2
78461;SHT31;67755;51.986;5.696;2023-06-22T08:31:21;27.0;49.2
78461;SHT31;67755;51.986;5.696;2023-06-22T08:33:51;27.0;49.1
78461;SHT31;67755;51.986;5.696;2023-06-22T08:36:21;27.0;50.0
78461;SHT31;67755;51.986;5.696;2023-06-22T08:38:50;27.0;49.0
78461;SHT31;67755;51.986;5.696;2023-06-22T08:41:21;27.1;50.9
78461;SHT31;67755;51.986;5.696;2023-06-22T08:43:51;27.1;52.7
78461;SHT31;67755;51.986;5.696;2023-06-22T08:46:23;27.2;51.4
78461;SHT31;67755;51.986;5.696;2023-06-22T08:48:58;27.2;51.0
78461;SHT31;67755;51.986;5.696;2023-06-22T08:51:28;27.3;50.5
78461;SHT31;67755;51.986;5.696;2023-06-22T08:54:00;27.3;48.1
78461;SHT31;67755;51.986;5.696;2023-06-22T08:56:29;27.3;49.0
78461;SHT31;67755;51.986;5.696;2023-06-22T08:58:59;27.4;50.1
78461;SHT31;67755;51.986;5.696;2023-06-22T09:01:28;27.4;50.2
78461;SHT31;67755;51.986;5.696;2023-06-22T09:03:58;27.5;46.7
78461;SHT31;67755;51.986;5.696;2023-06-22T09:06:29;27.5;49.1
78461;SHT31;67755;51.986;5.696;2023-06-22T09:09:02;27.5;47.4
78461;SHT31;67755;51.986;5.696;2023-06-22T09:11:33;27.6;48.2
78461;SHT31;67755;51.986;5.696;2023-06-22T09:14:03;27.6;48.7
78461;SHT31;67755;51.986;5.696;2023-06-22T09:16:34;27.6;48.0
78461;SHT31;67755;51.986;5.696;2023-06-22T09:19:03;27.7;46.0
78461;SHT31;67755;51.986;5.696;2023-06-22T09:21:33;27.7;46.3
78461;SHT31;67755;51.986;5.696;2023-06-22T09:24:03;27.8;45.3
78461;SHT31;67755;51.986;5.696;2023-06-22T09:26:33;27.8;45.6
78461;SHT31;67755;51.986;5.696;2023-06-22T09:29:04;27.8;50.1
78461;SHT31;67755;51.986;5.696;2023-06-22T09:31:34;27.9;49.2
78461;SHT31;67755;51.986;5.696;2023-06-22T09:34:04;27.9;44.5
78461;SHT31;67755;51.986;5.696;2023-06-22T09:36:34;27.9;44.0
78461;SHT31;67755;51.986;5.696;2023-06-22T09:39:06;27.9;43.2
78461;SHT31;67755;51.986;5.696;2023-06-22T09:41:35;27.9;44.7
78461;SHT31;67755;51.986;5.696;2023-06-22T09:44:05;27.9;46.9
78461;SHT31;67755;51.986;5.696;2023-06-22T09:46:35;27.9;44.6
78461;SHT31;67755;51.986;5.696;2023-06-22T09:49:05;28.0;45.4
78461;SHT31;67755;51.986;5.696;2023-06-22T09:51:34;28.0;48.3
78461;SHT31;67755;51.986;5.696;2023-06-22T09:54:04;28.0;48.0
78461;SHT31;67755;51.986;5.696;2023-06-22T09:56:34;28.0;46.2
78461;SHT31;67755;51.986;5.696;2023-06-22T09:59:05;28.0;46.1
78461;SHT31;67755;51.986;5.696;2023-06-22T10:01:34;28.0;48.4
78461;SHT31;67755;51.986;5.696;2023-06-22T10:04:04;28.0;47.7
78461;SHT31;67755;51.986;5.696;2023-06-22T10:06:34;28.0;48.8
78461;SHT31;67755;51.986;5.696;2023-06-22T10:09:08;28.0;48.1
78461;SHT31;67755;51.986;5.696;2023-06-22T10:11:38;28.0;47.2
78461;SHT31;67755;51.986;5.696;2023-06-22T10:14:07;28.0;47.7
78461;SHT31;67755;51.986;5.696;2023-06-22T10:16:37;28.0;45.5
78461;SHT31;67755;51.986;5.696;2023-06-22T10:19:08;28.0;44.7
78461;SHT31;67755;51.986;5.696;2023-06-22T10:21:40;27.9;46.3
78461;SHT31;67755;51.986;5.696;2023-06-22T10:24:09;27.9;46.4
78461;SHT31;67755;51.986;5.696;2023-06-22T10:26:39;27.9;48.3
78461;SHT31;67755;51.986;5.696;2023-06-22T10:29:08;27.9;49.7
78461;SHT31;67755;51.986;5.696;2023-06-22T10:31:38;27.8;49.7
78461;SHT31;67755;51.986;5.696;2023-06-22T10:34:08;27.8;50.4
78461;SHT31;67755;51.986;5.696;2023-06-22T10:36:38;27.8;49.8
78461;SHT31;67755;51.986;5.696;2023-06-22T10:39:08;27.8;49.0
78461;SHT31;67755;51.986;5.696;2023-06-22T10:41:39;27.8;50.0
78461;SHT31;67755;51.986;5.696;2023-06-22T10:44:09;27.8;51.3
78461;SHT31;67755;51.986;5.696;2023-06-22T10:46:39;27.8;52.1
78461;SHT31;67755;51.986;5.696;2023-06-22T10:49:09;27.8;50.2
78461;SHT31;67755;51.986;5.696;2023-06-22T10:51:38;27.8;52.7
78461;SHT31;67755;51.986;5.696;2023-06-22T10:54:09;27.8;49.3
78461;SHT31;67755;51.986;5.696;2023-06-22T10:56:41;27.8;50.1
78461;SHT31;67755;51.986;5.696;2023-06-22T10:59:10;27.8;51.0
78461;SHT31;67755;51.986;5.696;2023-06-22T11:01:40;27.8;48.6
78461;SHT31;67755;51.986;5.696;2023-06-22T11:04:09;27.8;50.4
78461;SHT31;67755;51.986;5.696;2023-06-22T11:06:39;27.8;49.7
78461;SHT31;67755;51.986;5.696;2023-06-22T11:09:09;27.8;50.2
78461;SHT31;67755;51.986;5.696;2023-06-22T11:11:40;27.8;49.9
78461;SHT31;67755;51.986;5.696;2023-06-22T11:14:10;27.8;49.4
78461;SHT31;67755;51.986;5.696;2023-06-22T11:16:40;27.8;51.0
78461;SHT31;67755;51.986;5.696;2023-06-22T11:19:09;27.8;51.9
78461;SHT31;67755;51.986;5.696;2023-06-22T11:21:39;27.8;50.7
78461;SHT31;67755;51.986;5.696;2023-06-22T11:24:09;27.8;51.8
78461;SHT31;67755;51.986;5.696;2023-06-22T11:26:38;27.8;50.9
78461;SHT31;67755;51.986;5.696;2023-06-22T11:29:08;27.8;47.5
78461;SHT31;67755;51.986;5.696;2023-06-22T11:31:38;27.8;47.3
78461;SHT31;67755;51.986;5.696;2023-06-22T11:34:07;27.8;49.5
78461;SHT31;67755;51.986;5.696;2023-06-22T11:36:37;27.8;50.0
78461;SHT31;67755;51.986;5.696;2023-06-22T11:39:08;27.8;50.5
78461;SHT31;67755;51.986;5.696;2023-06-22T11:41:39;27.8;48.4
78461;SHT31;67755;51.986;5.696;2023-06-22T11:44:09;27.8;50.8
78461;SHT31;67755;51.986;5.696;2023-06-22T11:46:38;27.7;52.1
78461;SHT31;67755;51.986;5.696;2023-06-22T11:49:10;27.7;49.9
78461;SHT31;67755;51.986;5.696;2023-06-22T11:51:39;27.7;53.8
78461;SHT31;67755;51.986;5.696;2023-06-22T11:54:09;27.7;52.7
78461;SHT31;67755;51.986;5.696;2023-06-22T11:56:38;27.7;51.7
78461;SHT31;67755;51.986;5.696;2023-06-22T11:59:08;27.7;52.2
78461;SHT31;67755;51.986;5.696;2023-06-22T12:01:37;27.7;52.9
78461;SHT31;67755;51.986;5.696;2023-06-22T12:04:07;27.7;54.9
78461;SHT31;67755;51.986;5.696;2023-06-22T12:06:38;27.6;55.2
78461;SHT31;67755;51.986;5.696;2023-06-22T12:09:10;27.6;56.4
78461;SHT31;67755;51.986;5.696;2023-06-22T12:11:41;27.6;57.1
78461;SHT31;67755;51.986;5.696;2023-06-22T12:14:10;27.5;57.4
78461;SHT31;67755;51.986;5.696;2023-06-22T12:16:40;27.5;57.6
78461;SHT31;67755;51.986;5.696;2023-06-22T12:19:11;27.5;58.2
78461;SHT31;67755;51.986;5.696;2023-06-22T12:21:43;27.4;58.1
78461;SHT31;67755;51.986;5.696;2023-06-22T12:24:13;27.4;57.6
78461;SHT31;67755;51.986;5.696;2023-06-22T12:26:47;27.4;58.5
78461;SHT31;67755;51.986;5.696;2023-06-22T12:29:16;27.3;57.8
78461;SHT31;67755;51.986;5.696;2023-06-22T12:31:46;27.3;59.4
78461;SHT31;67755;51.986;5.696;2023-06-22T12:34:16;27.2;59.1
78461;SHT31;67755;51.986;5.696;2023-06-22T12:36:45;27.2;57.5
78461;SHT31;67755;51.986;5.696;2023-06-22T12:39:16;27.1;58.7
78461;SHT31;67755;51.986;5.696;2023-06-22T12:41:45;27.1;58.4
78461;SHT31;67755;51.986;5.696;2023-06-22T12:44:15;27.0;59.6
78461;SHT31;67755;51.986;5.696;2023-06-22T12:46:45;27.0;59.7
78461;SHT31;67755;51.986;5.696;2023-06-22T12:49:14;26.9;59.8
78461;SHT31;67755;51.986;5.696;2023-06-22T12:51:46;26.9;60.4
78461;SHT31;67755;51.986;5.696;2023-06-22T12:54:17;26.9;59.7
78461;SHT31;67755;51.986;5.696;2023-06-22T12:56:47;26.8;59.5
78461;SHT31;67755;51.986;5.696;2023-06-22T12:59:18;26.8;59.4
78461;SHT31;67755;51.986;5.696;2023-06-22T13:01:48;26.8;60.5
78461;SHT31;67755;51.986;5.696;2023-06-22T13:04:17;26.7;60.2
78461;SHT31;67755;51.986;5.696;2023-06-22T13:06:47;26.7;60.4
78461;SHT31;67755;51.986;5.696;2023-06-22T13:09:18;26.7;61.2
78461;SHT31;67755;51.986;5.696;2023-06-22T13:11:48;26.7;61.6
78461;SHT31;67755;51.986;5.696;2023-06-22T13:14:19;26.7;61.4
78461;SHT31;67755;51.986;5.696;2023-06-22T13:16:51;26.6;60.3
78461;SHT31;67755;51.986;5.696;2023-06-22T13:19:21;26.6;60.8
78461;SHT31;67755;51.986;5.696;2023-06-22T13:21:50;26.6;61.1
78461;SHT31;67755;51.986;5.696;2023-06-22T13:24:20;26.5;60.7
78461;SHT31;67755;51.986;5.696;2023-06-22T13:26:50;26.5;60.7
78461;SHT31;67755;51.986;5.696;2023-06-22T13:29:19;26.5;61.7
78461;SHT31;67755;51.986;5.696;2023-06-22T13:31:49;26.5;61.8
78461;SHT31;67755;51.986;5.696;2023-06-22T13:34:18;26.5;61.9
78461;SHT31;67755;51.986;5.696;2023-06-22T13:36:49;26.4;61.4
78461;SHT31;67755;51.986;5.696;2023-06-22T13:39:19;26.4;61.3
78461;SHT31;67755;51.986;5.696;2023-06-22T13:41:48;26.4;60.7
78461;SHT31;67755;51.986;5.696;2023-06-22T13:44:18;26.4;61.3
78461;SHT31;67755;51.986;5.696;2023-06-22T13:46:49;26.4;61.2
78461;SHT31;67755;51.986;5.696;2023-06-22T13:49:19;26.4;61.8
78461;SHT31;67755;51.986;5.696;2023-06-22T13:51:49;26.3;62.0
78461;SHT31;67755;51.986;5.696;2023-06-22T13:54:18;26.3;62.0
78461;SHT31;67755;51.986;5.696;2023-06-22T13:56:48;26.3;61.6
78461;SHT31;67755;51.986;5.696;2023-06-22T13:59:18;26.3;61.7
78461;SHT31;67755;51.986;5.696;2023-06-22T14:01:48;26.3;61.5
78461;SHT31;67755;51.986;5.696;2023-06-22T14:04:18;26.2;61.7
78461;SHT31;67755;51.986;5.696;2023-06-22T14:06:47;26.2;61.6
78461;SHT31;67755;51.986;5.696;2023-06-22T14:09:17;26.2;62.1
78461;SHT31;67755;51.986;5.696;2023-06-22T14:11:47;26.2;61.1
78461;SHT31;67755;51.986;5.696;2023-06-22T14:14:19;26.2;61.8
78461;SHT31;67755;51.986;5.696;2023-06-22T14:16:50;26.2;61.7
78461;SHT31;67755;51.986;5.696;2023-06-22T14:19:20;26.1;60.8
78461;SHT31;67755;51.986;5.696;2023-06-22T14:21:50;26.1;60.7
78461;SHT31;67755;51.986;5.696;2023-06-22T14:24:19;26.1;60.9
78461;SHT31;67755;51.986;5.696;2023-06-22T14:26:49;26.0;61.0
78461;SHT31;67755;51.986;5.696;2023-06-22T14:29:19;26.0;60.4
78461;SHT31;67755;51.986;5.696;2023-06-22T14:31:48;26.0;61.3
78461;SHT31;67755;51.986;5.696;2023-06-22T14:34:19;25.9;60.6
78461;SHT31;67755;51.986;5.696;2023-06-22T14:36:49;25.9;61.1
78461;SHT31;67755;51.986;5.696;2023-06-22T14:39:19;25.9;61.0
78461;SHT31;67755;51.986;5.696;2023-06-22T14:41:48;25.8;60.9
78461;SHT31;67755;51.986;5.696;2023-06-22T14:44:20;25.8;60.9
78461;SHT31;67755;51.986;5.696;2023-06-22T14:46:49;25.7;60.2
78461;SHT31;67755;51.986;5.696;2023-06-22T14:49:19;25.7;60.2
78461;SHT31;67755;51.986;5.696;2023-06-22T14:51:48;25.6;61.0
78461;SHT31;67755;51.986;5.696;2023-06-22T14:54:18;25.6;60.8
78461;SHT31;67755;51.986;5.696;2023-06-22T14:56:48;25.6;61.1
78461;SHT31;67755;51.986;5.696;2023-06-22T14:59:19;25.5;60.6
78461;SHT31;67755;51.986;5.696;2023-06-22T15:01:49;25.5;60.8
78461;SHT31;67755;51.986;5.696;2023-06-22T15:04:20;25.4;60.8
78461;SHT31;67755;51.986;5.696;2023-06-22T15:06:50;25.4;61.5
78461;SHT31;67755;51.986;5.696;2023-06-22T15:09:19;25.4;61.5
78461;SHT31;67755;51.986;5.696;2023-06-22T15:11:49;25.3;61.2
78461;SHT31;67755;51.986;5.696;2023-06-22T15:14:18;25.3;61.7
78461;SHT31;67755;51.986;5.696;2023-06-22T15:16:48;25.3;61.6
78461;SHT31;67755;51.986;5.696;2023-06-22T15:19:18;25.3;62.2
78461;SHT31;67755;51.986;5.696;2023-06-22T15:21:47;25.2;61.9
78461;SHT31;67755;51.986;5.696;2023-06-22T15:24:17;25.2;62.3
78461;SHT31;67755;51.986;5.696;2023-06-22T15:26:47;25.2;62.5
78461;SHT31;67755;51.986;5.696;2023-06-22T15:29:18;25.2;62.6
78461;SHT31;67755;51.986;5.696;2023-06-22T15:31:48;25.2;62.7
78461;SHT31;67755;51.986;5.696;2023-06-22T15:34:18;25.2;62.6
78461;SHT31;67755;51.986;5.696;2023-06-22T15:36:50;25.2;62.3
78461;SHT31;67755;51.986;5.696;2023-06-22T15:39:19;25.2;62.5
78461;SHT31;67755;51.986;5.696;2023-06-22T15:41:50;25.2;62.6
78461;SHT31;67755;51.986;5.696;2023-06-22T15:44:22;25.2;62.2
78461;SHT31;67755;51.986;5.696;2023-06-22T15:46:52;25.2;62.7
78461;SHT31;67755;51.986;5.696;2023-06-22T15:49:22;25.2;62.5
78461;SHT31;67755;51.986;5.696;2023-06-22T15:51:51;25.1;62.6
78461;SHT31;67755;51.986;5.696;2023-06-22T15:54:21;25.1;63.0
78461;SHT31;67755;51.986;5.696;2023-06-22T15:56:50;25.1;62.8
78461;SHT31;67755;51.986;5.696;2023-06-22T15:59:20;25.1;63.0
78461;SHT31;67755;51.986;5.696;2023-06-22T16:01:51;25.1;63.1
78461;SHT31;67755;51.986;5.696;2023-06-22T16:04:22;25.1;63.2
78461;SHT31;67755;51.986;5.696;2023-06-22T16:06:52;25.1;63.4
78461;SHT31;67755;51.986;5.696;2023-06-22T16:09:21;25.1;63.7
78461;SHT31;67755;51.986;5.696;2023-06-22T16:11:51;25.1;63.5
78461;SHT31;67755;51.986;5.696;2023-06-22T16:14:21;25.1;64.0
78461;SHT31;67755;51.986;5.696;2023-06-22T16:16:50;25.1;63.7
78461;SHT31;67755;51.986;5.696;2023-06-22T16:19:20;25.1;64.2
78461;SHT31;67755;51.986;5.696;2023-06-22T16:21:50;25.1;63.7